Kemp, Georgia
Current Conditions -  °F | °C
As of 7:55 AM on Wednesday 26 Nov 2014 (Local Time) from KSBO Reporting Station
Light Rain Light Rain  
Wind Chill: 50°   Ceiling: 3100
Heat Index: 50°   Visibility: 10mi
Dew Point: 50°   Wind: 8mph
Humidity: 100%   Direction: 300°WNW
Pressure: 30.03"   Gusts: NA
Location:  32.5371°N, 82.3457°W
Report Text: KSBO 261255Z AUTO 30007KT 10SM -RA SCT004 BKN031 OVC050 10/10 A3003 RMK AO2
Loading
Personal Weather Stations






























Interactive Weather Map New forecast layout! Learn more

10-Day Weather Forecast

Advertisements
Track Severe Weather on mobile